createdAt,value
2019-05-17T00:01:50.392Z,64.00
2019-05-17T00:04:20.150Z,64.10
2019-05-17T00:06:50.522Z,64.00
2019-05-17T00:09:20.352Z,63.90
2019-05-17T00:11:50.172Z,64.10
2019-05-17T00:14:19.945Z,64.10
2019-05-17T00:16:49.753Z,64.00
2019-05-17T00:19:19.543Z,63.90
2019-05-17T00:21:49.374Z,64.20
2019-05-17T00:24:20.217Z,65.00
2019-05-17T00:26:50.615Z,64.20
2019-05-17T00:29:20.866Z,64.30
2019-05-17T00:31:50.676Z,64.30
2019-05-17T00:34:20.439Z,64.30
2019-05-17T00:36:50.274Z,64.20
2019-05-17T00:39:20.062Z,64.30
2019-05-17T00:41:49.842Z,64.40
2019-05-17T00:44:19.620Z,64.50
2019-05-17T00:46:49.415Z,64.40
2019-05-17T00:49:19.340Z,64.50
2019-05-17T00:51:49.189Z,64.50
2019-05-17T00:54:18.957Z,64.70
2019-05-17T00:56:49.167Z,64.70
2019-05-17T00:59:19.370Z,65.00
2019-05-17T01:01:49.184Z,65.00
2019-05-17T01:04:18.964Z,64.80
2019-05-17T01:06:49.151Z,64.80
2019-05-17T01:09:18.911Z,64.80
2019-05-17T01:11:48.728Z,64.90
2019-05-17T01:14:19.671Z,65.00
2019-05-17T01:16:49.477Z,64.90
2019-05-17T01:19:19.246Z,64.80
2019-05-17T01:21:49.061Z,65.00
2019-05-17T01:24:18.934Z,65.00
2019-05-17T01:26:48.774Z,65.00
2019-05-17T01:29:18.553Z,65.00
2019-05-17T01:31:48.520Z,65.10
2019-05-17T01:34:37.768Z,65.10
2019-05-17T01:37:08.119Z,64.60
2019-05-17T01:39:38.482Z,65.00
2019-05-17T01:42:08.763Z,65.00
2019-05-17T01:44:38.540Z,65.00
2019-05-17T01:47:08.786Z,65.00
2019-05-17T01:49:39.070Z,65.00
2019-05-17T01:52:08.906Z,65.10
2019-05-17T01:54:38.670Z,65.10
2019-05-17T01:57:08.953Z,65.00
2019-05-17T01:59:38.720Z,65.00
2019-05-17T02:02:11.474Z,65.20
2019-05-17T02:04:41.248Z,65.10
2019-05-17T02:07:11.054Z,65.00
2019-05-17T02:09:41.903Z,65.00
2019-05-17T02:12:12.359Z,65.10
2019-05-17T02:14:42.110Z,65.20
2019-05-17T02:17:11.950Z,65.10
2019-05-17T02:19:42.370Z,65.00
2019-05-17T02:22:12.717Z,65.00
2019-05-17T02:24:43.432Z,65.00
2019-05-17T02:27:13.277Z,65.20
2019-05-17T02:29:43.150Z,65.00
2019-05-17T02:32:13.054Z,65.10
2019-05-17T02:34:43.165Z,65.00
2019-05-17T02:37:14.047Z,65.00
2019-05-17T02:39:58.204Z,65.20
2019-05-17T02:42:16.229Z,65.20
2019-05-17T02:44:46.060Z,65.20
2019-05-17T02:47:16.368Z,65.20
2019-05-17T02:49:46.183Z,65.30
2019-05-17T02:52:16.913Z,65.20
2019-05-17T02:54:46.716Z,65.20
2019-05-17T02:57:16.491Z,65.20
2019-05-17T02:59:46.324Z,65.30
2019-05-17T03:02:16.459Z,65.30
2019-05-17T03:04:46.273Z,65.40
2019-05-17T03:07:16.052Z,65.40
2019-05-17T03:09:46.368Z,65.40
2019-05-17T03:12:16.192Z,65.40
2019-05-17T03:14:46.467Z,65.40
2019-05-17T03:17:16.715Z,65.40
2019-05-17T03:19:46.886Z,65.50
2019-05-17T03:22:16.694Z,65.60
2019-05-17T03:24:46.510Z,65.50
2019-05-17T03:27:16.337Z,65.60
2019-05-17T03:29:46.108Z,65.60
2019-05-17T03:32:17.649Z,65.60
2019-05-17T03:34:48.400Z,65.60
2019-05-17T03:37:19.116Z,65.60
2019-05-17T03:39:48.932Z,65.70
2019-05-17T03:42:22.493Z,65.70
2019-05-17T03:44:53.086Z,65.70
2019-05-17T03:47:22.831Z,65.60
2019-05-17T03:49:53.212Z,65.60
2019-05-17T03:52:24.294Z,65.70
2019-05-17T03:54:54.067Z,65.70
2019-05-17T03:57:24.361Z,65.70
2019-05-17T03:59:54.671Z,65.70
2019-05-17T04:02:24.474Z,65.70
2019-05-17T04:04:54.265Z,65.70
2019-05-17T04:07:24.269Z,65.70
2019-05-17T04:09:54.127Z,65.70
2019-05-17T04:12:24.440Z,65.60
2019-05-17T04:14:54.914Z,65.60
2019-05-17T04:17:25.115Z,65.70
2019-05-17T04:19:54.904Z,65.80
2019-05-17T04:22:24.656Z,65.80
2019-05-17T04:24:54.478Z,65.80
2019-05-17T04:27:24.252Z,66.50
2019-05-17T04:29:54.541Z,65.80
2019-05-17T04:32:25.276Z,65.70
2019-05-17T04:34:56.012Z,65.60
2019-05-17T04:37:25.837Z,65.50
2019-05-17T04:39:55.591Z,65.40
2019-05-17T04:42:25.859Z,66.30
2019-05-17T04:44:55.974Z,65.30
2019-05-17T04:47:25.740Z,65.30
2019-05-17T04:49:55.528Z,65.20
2019-05-17T04:52:25.336Z,65.20
2019-05-17T04:54:55.633Z,65.10
2019-05-17T04:57:25.725Z,65.10
2019-05-17T04:59:56.096Z,65.10
2019-05-17T05:02:26.931Z,65.00
2019-05-17T05:04:56.698Z,65.10
2019-05-17T05:07:26.688Z,65.20
2019-05-17T05:09:57.061Z,65.20
2019-05-17T05:12:27.383Z,65.20
2019-05-17T05:14:57.212Z,65.20
2019-05-17T05:17:27.041Z,65.30
2019-05-17T05:19:57.235Z,65.20
2019-05-17T05:22:27.049Z,65.20
2019-05-17T05:24:57.293Z,65.40
2019-05-17T05:27:27.451Z,65.40
2019-05-17T05:29:57.267Z,65.40
2019-05-17T05:32:27.108Z,65.40
2019-05-17T05:34:57.312Z,65.40
2019-05-17T05:37:27.117Z,65.50
2019-05-17T05:39:57.394Z,65.50
2019-05-17T05:42:27.194Z,65.50
2019-05-17T05:44:57.427Z,65.60
2019-05-17T05:47:27.256Z,65.80
2019-05-17T05:49:57.041Z,65.80
2019-05-17T05:52:26.849Z,65.80
2019-05-17T05:54:57.503Z,65.80
2019-05-17T05:57:27.722Z,65.60
2019-05-17T05:59:58.050Z,65.70
2019-05-17T06:02:27.899Z,65.70
2019-05-17T06:04:57.732Z,65.50
2019-05-17T06:07:27.971Z,65.40
2019-05-17T06:10:02.020Z,65.40
2019-05-17T06:12:32.227Z,65.30
2019-05-17T06:15:02.960Z,65.30
2019-05-17T06:17:32.962Z,65.40
2019-05-17T06:20:03.132Z,65.40
2019-05-17T06:22:32.958Z,65.40
2019-05-17T06:25:04.123Z,65.50
2019-05-17T06:27:34.699Z,65.70
2019-05-17T06:30:04.809Z,65.80
2019-05-17T06:32:35.053Z,66.90
2019-05-17T06:35:05.814Z,66.20
2019-05-17T06:37:36.222Z,66.00
2019-05-17T06:40:07.382Z,65.90
2019-05-17T06:42:41.101Z,66.00
2019-05-17T06:45:08.695Z,66.00
2019-05-17T06:47:38.530Z,66.20
2019-05-17T06:50:08.458Z,66.10
2019-05-17T06:52:38.647Z,66.30
2019-05-17T06:55:08.484Z,66.00
2019-05-17T06:57:38.821Z,65.90
2019-05-17T07:00:13.946Z,65.90
2019-05-17T07:02:40.299Z,65.80
2019-05-17T07:05:12.843Z,65.80
2019-05-17T07:07:42.667Z,65.60
2019-05-17T07:10:12.701Z,65.70
2019-05-17T07:12:54.843Z,65.60
2019-05-17T07:15:15.076Z,65.60
2019-05-17T07:17:44.878Z,65.80
2019-05-17T07:20:14.719Z,65.80
2019-05-17T07:22:45.040Z,65.70
2019-05-17T07:25:50.288Z,65.60
2019-05-17T07:28:20.123Z,65.40
2019-05-17T07:30:50.476Z,65.30
2019-05-17T07:33:20.402Z,65.40
2019-05-17T07:35:51.551Z,65.20
2019-05-17T07:38:21.918Z,65.20
2019-05-17T07:40:51.694Z,65.10
2019-05-17T07:43:21.527Z,65.40
2019-05-17T07:45:52.357Z,65.20
2019-05-17T07:48:22.176Z,65.10
2019-05-17T07:50:52.032Z,65.00
2019-05-17T07:53:22.263Z,64.30
2019-05-17T07:55:52.479Z,64.80
2019-05-17T07:58:22.870Z,64.70
2019-05-17T08:00:53.477Z,64.50
2019-05-17T08:03:24.928Z,64.40
2019-05-17T08:05:56.099Z,64.20
2019-05-17T08:08:25.918Z,64.20
2019-05-17T08:10:55.730Z,64.20
2019-05-17T08:13:30.536Z,64.30
2019-05-17T08:15:59.396Z,64.20
2019-05-17T08:18:29.617Z,64.10
2019-05-17T08:20:59.881Z,64.20
2019-05-17T08:23:30.508Z,64.00
2019-05-17T08:26:00.758Z,64.00
2019-05-17T08:28:31.192Z,64.10
2019-05-17T08:31:01.449Z,64.00
2019-05-17T08:33:32.002Z,63.90
2019-05-17T08:36:02.658Z,64.00
2019-05-17T08:38:32.619Z,64.00
2019-05-17T08:41:02.497Z,63.80
2019-05-17T08:43:44.425Z,63.70
2019-05-17T08:46:03.760Z,63.70
2019-05-17T08:48:34.273Z,63.80
2019-05-17T08:51:04.653Z,63.80
2019-05-17T08:53:34.555Z,63.50
2019-05-17T08:56:04.345Z,63.30
2019-05-17T08:58:34.326Z,63.10
2019-05-17T09:01:04.682Z,62.90
2019-05-17T09:03:34.517Z,62.80
2019-05-17T09:06:04.342Z,62.70
2019-05-17T09:08:34.140Z,62.70
2019-05-17T09:11:04.473Z,62.60
2019-05-17T09:13:35.180Z,62.70
2019-05-17T09:16:05.055Z,62.50
2019-05-17T09:18:35.359Z,62.40
2019-05-17T09:21:05.549Z,63.20
2019-05-17T09:23:39.495Z,62.20
2019-05-17T09:26:10.071Z,62.10
2019-05-17T09:28:40.606Z,62.00
2019-05-17T09:31:10.994Z,61.80
2019-05-17T09:33:40.776Z,61.80
2019-05-17T09:36:10.608Z,61.80
2019-05-17T09:38:40.894Z,61.60
2019-05-17T09:41:11.572Z,61.60
2019-05-17T09:43:41.400Z,61.60
2019-05-17T09:46:12.976Z,61.40
2019-05-17T09:48:46.829Z,61.40
2019-05-17T09:51:15.239Z,61.40
2019-05-17T09:53:45.078Z,61.30
2019-05-17T09:56:15.354Z,61.30
2019-05-17T09:58:45.840Z,61.10
2019-05-17T10:01:15.801Z,61.10
2019-05-17T10:03:46.112Z,61.00
2019-05-17T10:06:16.471Z,60.90
2019-05-17T10:08:49.314Z,60.80
2019-05-17T10:11:20.308Z,60.70
2019-05-17T10:13:50.464Z,60.60
2019-05-17T10:16:20.498Z,60.60
2019-05-17T10:18:50.875Z,60.50
2019-05-17T10:21:20.658Z,60.40
2019-05-17T10:23:50.867Z,60.20
2019-05-17T10:26:21.542Z,60.20
2019-05-17T10:28:51.773Z,60.60
2019-05-17T10:31:21.775Z,60.00
2019-05-17T10:33:51.593Z,60.00
2019-05-17T10:36:22.338Z,59.90
2019-05-17T10:38:52.179Z,59.90
2019-05-17T10:41:21.956Z,59.80
2019-05-17T10:43:51.948Z,59.70
2019-05-17T10:46:21.755Z,59.60
2019-05-17T10:48:51.625Z,59.70
2019-05-17T10:51:21.979Z,59.40
2019-05-17T10:53:51.836Z,59.50
2019-05-17T10:56:23.550Z,59.50
2019-05-17T10:58:53.204Z,59.50
2019-05-17T11:01:23.831Z,59.30
2019-05-17T11:03:54.018Z,59.30
2019-05-17T11:06:24.283Z,59.20
2019-05-17T11:08:54.818Z,59.10
2019-05-17T11:11:24.818Z,58.90
2019-05-17T11:13:55.056Z,58.70
2019-05-17T11:16:24.891Z,58.60
2019-05-17T11:18:55.102Z,58.50
2019-05-17T11:21:25.015Z,58.40
2019-05-17T11:23:55.830Z,58.20
2019-05-17T11:26:26.137Z,58.00
2019-05-17T11:28:56.180Z,58.10
2019-05-17T11:31:26.140Z,57.80
2019-05-17T11:33:56.481Z,57.70
2019-05-17T11:36:26.289Z,57.50
2019-05-17T11:38:56.682Z,57.50
2019-05-17T11:41:26.482Z,57.30
2019-05-17T11:43:56.721Z,57.40
2019-05-17T11:46:35.891Z,57.50
2019-05-17T11:48:59.541Z,57.50
2019-05-17T11:51:29.342Z,57.30
2019-05-17T11:53:59.663Z,57.20
2019-05-17T11:56:30.120Z,57.60
2019-05-17T11:59:01.039Z,56.80
2019-05-17T12:01:30.825Z,56.80
2019-05-17T12:04:00.996Z,56.90
2019-05-17T12:06:31.900Z,57.20
2019-05-17T12:09:02.650Z,57.20
2019-05-17T12:11:32.966Z,57.10
2019-05-17T12:14:02.831Z,57.00
2019-05-17T12:16:33.065Z,56.60
2019-05-17T12:19:02.831Z,56.30
2019-05-17T12:21:35.194Z,55.90
2019-05-17T12:24:04.968Z,55.50
2019-05-17T12:26:35.281Z,55.40
2019-05-17T12:29:05.045Z,55.50
2019-05-17T12:31:35.070Z,55.30
2019-05-17T12:34:04.866Z,55.10
2019-05-17T12:36:34.869Z,55.00
2019-05-17T12:39:06.468Z,55.10
2019-05-17T12:41:36.284Z,55.60
2019-05-17T12:44:06.081Z,54.70
2019-05-17T12:46:36.386Z,54.20
2019-05-17T12:49:07.340Z,54.20
2019-05-17T12:51:37.135Z,54.40
2019-05-17T12:54:07.397Z,54.60
2019-05-17T12:56:37.227Z,54.90
2019-05-17T12:59:07.552Z,54.80
2019-05-17T13:01:37.705Z,54.20
2019-05-17T13:04:07.885Z,54.50
2019-05-17T13:06:38.197Z,54.40
2019-05-17T13:09:08.078Z,54.20
2019-05-17T13:11:38.474Z,54.00
2019-05-17T13:14:08.678Z,53.80
2019-05-17T13:16:39.024Z,53.60
2019-05-17T13:19:08.853Z,53.30
2019-05-17T13:21:39.814Z,52.90
2019-05-17T13:24:09.640Z,52.70
2019-05-17T13:26:40.426Z,52.50
2019-05-17T13:29:10.763Z,52.20
2019-05-17T13:31:41.212Z,51.80
2019-05-17T13:34:11.500Z,50.70
2019-05-17T13:36:42.727Z,51.00
2019-05-17T13:39:13.714Z,50.80
2019-05-17T13:41:44.041Z,50.60
2019-05-17T13:44:15.160Z,50.60
2019-05-17T13:46:45.842Z,50.20
2019-05-17T13:49:15.626Z,50.00
2019-05-17T13:51:45.811Z,50.00
2019-05-17T13:54:15.593Z,49.90
2019-05-17T13:56:45.465Z,49.70
2019-05-17T13:59:15.247Z,49.00
2019-05-17T14:01:45.544Z,48.80
2019-05-17T14:04:18.794Z,48.40
2019-05-17T14:06:48.624Z,48.60
2019-05-17T14:09:19.118Z,48.00
2019-05-17T14:11:48.989Z,47.90
2019-05-17T14:14:19.272Z,47.70
2019-05-17T14:16:49.159Z,47.60
2019-05-17T14:19:19.395Z,47.20
2019-05-17T14:21:50.271Z,46.50
2019-05-17T14:24:20.381Z,46.30
2019-05-17T14:26:50.279Z,46.40
2019-05-17T14:29:21.808Z,45.90
2019-05-17T14:31:51.719Z,45.80
2019-05-17T14:34:21.595Z,45.90
2019-05-17T14:36:51.475Z,46.10
2019-05-17T14:39:21.317Z,46.00
2019-05-17T14:41:51.123Z,45.60
2019-05-17T14:44:21.380Z,45.90
2019-05-17T14:46:54.347Z,45.40
2019-05-17T14:49:25.116Z,45.70
2019-05-17T14:51:55.461Z,45.70
2019-05-17T14:54:25.310Z,45.40
2019-05-17T14:56:55.564Z,45.40
2019-05-17T14:59:25.435Z,45.50
2019-05-17T15:01:55.202Z,45.10
2019-05-17T15:04:30.992Z,44.90
2019-05-17T15:07:00.864Z,45.00
2019-05-17T15:09:31.389Z,44.50
2019-05-17T15:12:01.466Z,44.20
2019-05-17T15:14:32.249Z,44.00
2019-05-17T15:17:02.178Z,43.70
2019-05-17T15:19:32.099Z,43.50
2019-05-17T15:22:01.942Z,42.70
2019-05-17T15:24:31.829Z,42.40
2019-05-17T15:27:05.807Z,42.30
2019-05-17T15:29:34.013Z,41.70
2019-05-17T15:32:04.476Z,41.60
2019-05-17T15:34:34.863Z,41.20
2019-05-17T15:37:04.987Z,41.30
2019-05-17T15:39:35.168Z,40.90
2019-05-17T15:42:05.361Z,40.60
2019-05-17T15:44:35.180Z,40.20
2019-05-17T15:47:05.381Z,39.90
2019-05-17T15:49:36.058Z,39.50
2019-05-17T15:52:06.366Z,39.40
2019-05-17T15:54:37.723Z,39.30
2019-05-17T15:57:07.579Z,39.10
2019-05-17T15:59:38.608Z,39.00
2019-05-17T16:02:08.920Z,39.10
2019-05-17T16:04:38.783Z,39.10
2019-05-17T16:07:08.553Z,39.30
2019-05-17T16:09:38.799Z,38.60
2019-05-17T16:12:08.590Z,38.20
2019-05-17T16:14:38.400Z,38.10
2019-05-17T16:17:08.213Z,37.80
2019-05-17T16:19:39.087Z,37.80
2019-05-17T16:22:09.021Z,37.40
2019-05-17T16:24:38.947Z,37.30
2019-05-17T16:27:09.032Z,37.10
2019-05-17T16:29:39.343Z,37.00
2019-05-17T16:32:09.164Z,37.00
2019-05-17T16:34:40.012Z,37.00
2019-05-17T16:37:10.412Z,37.00
2019-05-17T16:39:40.245Z,36.90
2019-05-17T16:42:10.069Z,36.80
2019-05-17T16:44:39.979Z,36.30
2019-05-17T16:47:10.371Z,35.90
2019-05-17T16:49:41.250Z,35.80
2019-05-17T16:52:11.537Z,35.70
2019-05-17T16:54:41.389Z,35.60
2019-05-17T16:57:11.199Z,35.70
2019-05-17T16:59:41.035Z,35.70
2019-05-17T17:02:10.956Z,35.80
2019-05-17T17:04:40.814Z,35.80
2019-05-17T17:07:11.146Z,35.90
2019-05-17T17:09:41.023Z,35.90
2019-05-17T17:12:11.371Z,37.00
2019-05-17T17:14:42.237Z,36.50
2019-05-17T17:17:13.443Z,36.90
2019-05-17T17:19:44.771Z,37.10
2019-05-17T17:22:15.594Z,37.30
2019-05-17T17:24:45.398Z,37.30
2019-05-17T17:27:15.263Z,37.40
2019-05-17T17:29:45.713Z,37.50
2019-05-17T17:32:21.420Z,37.40
2019-05-17T17:34:48.215Z,37.50
2019-05-17T17:37:18.072Z,37.40
2019-05-17T17:39:47.882Z,37.40
2019-05-17T17:42:18.165Z,37.50
2019-05-17T17:44:47.998Z,37.50
2019-05-17T17:47:17.837Z,37.70
2019-05-17T17:49:48.132Z,37.70
2019-05-17T17:52:18.020Z,37.80
2019-05-17T17:54:48.260Z,37.60
2019-05-17T17:57:19.126Z,38.10
2019-05-17T17:59:49.414Z,38.00
2019-05-17T18:02:19.271Z,38.20
2019-05-17T18:04:49.084Z,38.90
2019-05-17T18:07:19.144Z,38.30
2019-05-17T18:09:49.041Z,38.40
2019-05-17T18:12:18.915Z,38.50
2019-05-17T18:14:49.179Z,38.50
2019-05-17T18:17:19.072Z,38.60
2019-05-17T18:19:49.345Z,38.80
2019-05-17T18:22:20.226Z,38.70
2019-05-17T18:24:50.600Z,38.90
2019-05-17T18:27:21.503Z,39.00
2019-05-17T18:29:51.326Z,39.00
2019-05-17T18:32:21.622Z,39.20
2019-05-17T18:34:51.919Z,39.10
2019-05-17T18:37:21.854Z,39.30
2019-05-17T18:39:52.024Z,39.50
2019-05-17T18:42:22.193Z,39.50
2019-05-17T18:44:52.013Z,39.60
2019-05-17T18:47:22.448Z,39.50
2019-05-17T18:49:52.292Z,39.70
2019-05-17T18:52:22.477Z,39.80
2019-05-17T18:54:52.810Z,39.80
2019-05-17T18:57:22.652Z,39.90
2019-05-17T18:59:55.214Z,40.00
2019-05-17T19:02:25.421Z,40.20
2019-05-17T19:04:55.192Z,40.20
2019-05-17T19:07:25.036Z,40.30
2019-05-17T19:09:55.335Z,40.40
2019-05-17T19:12:25.143Z,40.60
2019-05-17T19:14:55.891Z,40.50
2019-05-17T19:17:26.249Z,40.60
2019-05-17T19:19:56.102Z,40.70
2019-05-17T19:22:26.302Z,40.70
2019-05-17T19:24:56.145Z,40.90
2019-05-17T19:27:26.012Z,40.90
2019-05-17T19:29:56.139Z,41.00
2019-05-17T19:32:26.430Z,41.20
2019-05-17T19:34:56.702Z,41.30
2019-05-17T19:37:26.474Z,41.40
2019-05-17T19:39:56.308Z,41.50
2019-05-17T19:42:26.273Z,41.50
2019-05-17T19:44:59.000Z,42.10
2019-05-17T19:47:29.114Z,41.70
2019-05-17T19:49:59.827Z,41.90
2019-05-17T19:52:29.634Z,41.80
2019-05-17T19:54:59.848Z,41.80
2019-05-17T19:57:29.986Z,41.90
2019-05-17T20:00:00.862Z,42.00
2019-05-17T20:02:30.655Z,42.10
2019-05-17T20:05:00.501Z,42.20
2019-05-17T20:07:38.014Z,42.40
2019-05-17T20:10:03.249Z,42.30
2019-05-17T20:12:33.068Z,42.30
2019-05-17T20:15:16.594Z,42.50
2019-05-17T20:17:34.614Z,42.60
2019-05-17T20:20:04.564Z,42.60
2019-05-17T20:22:34.773Z,42.70
2019-05-17T20:25:05.081Z,42.80
2019-05-17T20:27:34.892Z,42.80
2019-05-17T20:30:05.117Z,43.00
2019-05-17T20:32:35.453Z,43.10
2019-05-17T20:35:05.699Z,43.20
2019-05-17T20:37:36.112Z,43.20
2019-05-17T20:40:06.353Z,43.40
2019-05-17T20:42:36.148Z,43.50
2019-05-17T20:45:06.600Z,43.60
2019-05-17T20:47:36.379Z,43.60
2019-05-17T20:50:06.503Z,43.70
2019-05-17T20:52:36.831Z,43.80
2019-05-17T20:55:07.042Z,43.90
2019-05-17T20:57:37.514Z,44.00
2019-05-17T21:00:07.441Z,44.10
2019-05-17T21:02:38.153Z,44.20
2019-05-17T21:05:08.546Z,44.30
2019-05-17T21:07:38.815Z,44.30
2019-05-17T21:10:09.129Z,44.40
2019-05-17T21:12:38.889Z,44.50
2019-05-17T21:15:09.203Z,44.60
2019-05-17T21:17:39.079Z,44.70
2019-05-17T21:20:09.966Z,44.70
2019-05-17T21:22:40.219Z,44.80
2019-05-17T21:25:10.026Z,44.90
2019-05-17T21:27:39.850Z,44.90
2019-05-17T21:30:10.158Z,45.00
2019-05-17T21:32:39.999Z,45.10
2019-05-17T21:35:10.084Z,45.20
2019-05-17T21:37:40.880Z,45.30
2019-05-17T21:40:10.679Z,45.30
2019-05-17T21:42:41.030Z,45.50
2019-05-17T21:45:11.189Z,45.50
2019-05-17T21:47:47.661Z,45.60
2019-05-17T21:50:19.039Z,45.60
2019-05-17T21:52:48.848Z,45.70
2019-05-17T21:55:18.620Z,45.80
2019-05-17T21:57:48.937Z,45.90
2019-05-17T22:00:44.215Z,46.00
2019-05-17T22:03:14.017Z,46.10
2019-05-17T22:08:23.397Z,46.20
2019-05-17T22:10:53.520Z,46.50
2019-05-17T22:13:23.489Z,46.60
2019-05-17T22:15:54.405Z,46.70
2019-05-17T22:18:24.028Z,46.70
2019-05-17T22:20:53.612Z,46.70
2019-05-17T22:23:23.217Z,46.70
2019-05-17T22:25:53.360Z,46.80
2019-05-17T22:28:22.972Z,46.80
2019-05-17T22:30:53.259Z,46.80
2019-05-17T22:33:23.704Z,46.90
2019-05-17T22:35:53.834Z,46.90
2019-05-17T22:38:23.560Z,47.00
2019-05-17T22:40:53.164Z,47.00
2019-05-17T22:43:23.245Z,47.10
2019-05-17T22:45:52.833Z,47.10
2019-05-17T22:48:22.454Z,47.20
2019-05-17T22:50:52.461Z,47.40
2019-05-17T22:53:22.774Z,47.30
2019-05-17T22:55:52.345Z,47.40
2019-05-17T22:58:21.960Z,47.50
2019-05-17T23:00:51.526Z,47.50
2019-05-17T23:03:21.144Z,47.70
2019-05-17T23:05:51.182Z,47.70
2019-05-17T23:08:21.669Z,47.80
2019-05-17T23:10:51.977Z,47.80
2019-05-17T23:13:21.606Z,47.90
2019-05-17T23:16:09.653Z,48.10
2019-05-17T23:18:39.777Z,48.90
2019-05-17T23:21:09.481Z,48.30
2019-05-17T23:23:39.073Z,48.40
2019-05-17T23:26:08.685Z,48.50
2019-05-17T23:28:38.313Z,48.60
2019-05-17T23:31:08.333Z,48.60
2019-05-17T23:33:37.936Z,48.70
2019-05-17T23:36:08.325Z,48.80
2019-05-17T23:38:37.937Z,49.50
2019-05-17T23:41:07.846Z,48.90
2019-05-17T23:43:37.462Z,48.90
2019-05-17T23:46:07.020Z,49.00
2019-05-17T23:48:37.517Z,49.00
2019-05-17T23:51:07.103Z,49.00
2019-05-17T23:53:36.705Z,49.10
2019-05-17T23:56:06.281Z,49.10
2019-05-17T23:58:36.564Z,49.20
